createdAt,value
2019-03-22T00:00:44.593Z,59.67
2019-03-22T00:03:13.421Z,63.98
2019-03-22T00:05:42.529Z,57.17
2019-03-22T00:08:16.697Z,55.40
2019-03-22T00:10:53.285Z,60.50
2019-03-22T00:13:31.617Z,61.10
2019-03-22T00:16:14.486Z,58.83
2019-03-22T00:18:55.658Z,57.88
2019-03-22T00:21:34.369Z,56.37
2019-03-22T00:24:05.316Z,53.20
2019-03-22T00:26:35.144Z,58.68
2019-03-22T00:29:04.217Z,63.08
2019-03-22T00:31:33.094Z,63.40
2019-03-22T00:34:02.005Z,61.83
2019-03-22T00:36:31.107Z,69.82
2019-03-22T00:39:00.037Z,59.80
2019-03-22T00:41:29.002Z,57.93
2019-03-22T00:43:57.802Z,64.22
2019-03-22T00:46:26.751Z,58.33
2019-03-22T00:48:55.634Z,60.38
2019-03-22T00:51:24.547Z,57.95
2019-03-22T00:53:53.430Z,60.48
2019-03-22T00:56:22.338Z,61.08
2019-03-22T00:58:51.213Z,66.33
2019-03-22T01:01:20.122Z,60.80
2019-03-22T01:03:49.065Z,57.67
2019-03-22T01:06:17.978Z,57.55
2019-03-22T01:08:46.936Z,70.25
2019-03-22T01:11:15.898Z,57.53
2019-03-22T01:13:44.790Z,62.45
2019-03-22T01:16:13.674Z,63.52
2019-03-22T01:18:42.541Z,60.15
2019-03-22T01:21:11.450Z,60.48
2019-03-22T01:23:40.312Z,62.88
2019-03-22T01:26:09.228Z,66.30
2019-03-22T01:28:38.188Z,64.03
2019-03-22T01:31:07.078Z,62.27
2019-03-22T01:33:36.140Z,61.88
2019-03-22T01:36:05.030Z,65.10
2019-03-22T01:38:33.899Z,54.83
2019-03-22T01:41:22.178Z,60.80
2019-03-22T01:43:51.118Z,58.45
2019-03-22T01:46:20.086Z,61.00
2019-03-22T01:48:51.438Z,56.73
2019-03-22T01:51:20.324Z,60.88
2019-03-22T01:53:49.198Z,59.60
2019-03-22T01:56:18.020Z,59.67
2019-03-22T01:58:46.889Z,56.90
2019-03-22T02:01:15.851Z,60.00
2019-03-22T02:03:44.726Z,60.10
2019-03-22T02:06:13.618Z,56.53
2019-03-22T02:08:42.585Z,71.62
2019-03-22T02:11:11.456Z,67.05
2019-03-22T02:13:40.418Z,67.17
2019-03-22T02:16:09.348Z,63.70
2019-03-22T02:18:38.246Z,61.40
2019-03-22T02:21:07.132Z,65.20
2019-03-22T02:23:36.003Z,71.42
2019-03-22T02:26:04.891Z,66.12
2019-03-22T02:28:33.759Z,65.72
2019-03-22T02:31:02.770Z,63.33
2019-03-22T02:33:31.667Z,68.02
2019-03-22T02:36:00.569Z,61.68
2019-03-22T02:38:29.437Z,63.65
2019-03-22T02:40:58.344Z,60.85
2019-03-22T02:43:27.226Z,73.70
2019-03-22T02:45:56.180Z,72.47
2019-03-22T02:48:25.008Z,62.15
2019-03-22T02:50:56.155Z,70.67
2019-03-22T02:53:24.477Z,63.87
2019-03-22T02:55:53.485Z,76.17
2019-03-22T02:58:22.535Z,80.83
2019-03-22T03:00:51.511Z,80.87
2019-03-22T03:03:20.398Z,82.62
2019-03-22T03:05:49.284Z,73.17
2019-03-22T03:08:18.233Z,73.87
2019-03-22T03:10:47.160Z,71.70
2019-03-22T03:13:16.042Z,120.08
2019-03-22T03:15:44.951Z,84.87
2019-03-22T03:18:13.817Z,82.22
2019-03-22T03:20:42.709Z,78.42
2019-03-22T03:23:11.572Z,78.37
2019-03-22T03:25:40.496Z,74.45
2019-03-22T03:28:09.336Z,80.35
2019-03-22T03:30:38.388Z,82.40
2019-03-22T03:33:07.233Z,98.40
2019-03-22T03:35:36.122Z,76.87
2019-03-22T03:38:05.058Z,99.55
2019-03-22T03:40:33.949Z,120.92
2019-03-22T03:43:02.863Z,76.05
2019-03-22T03:45:36.727Z,105.12
2019-03-22T03:48:08.029Z,91.15
2019-03-22T03:50:37.048Z,68.67
2019-03-22T03:53:06.287Z,71.20
2019-03-22T03:55:35.385Z,75.32
2019-03-22T03:58:05.071Z,75.47
2019-03-22T04:00:34.072Z,101.92
2019-03-22T04:03:03.054Z,85.95
2019-03-22T04:05:31.927Z,72.40
2019-03-22T04:08:01.315Z,91.08
2019-03-22T04:10:30.178Z,74.75
2019-03-22T04:12:59.037Z,92.33
2019-03-22T04:15:27.958Z,77.22
2019-03-22T04:17:56.846Z,78.70
2019-03-22T04:20:25.742Z,87.97
2019-03-22T04:22:54.678Z,81.10
2019-03-22T04:25:23.535Z,79.15
2019-03-22T04:27:52.437Z,106.65
2019-03-22T04:30:21.294Z,95.90
2019-03-22T04:32:50.191Z,99.20
2019-03-22T04:35:19.061Z,52.80
2019-03-22T04:37:48.021Z,57.88
2019-03-22T04:40:24.505Z,112.22
2019-03-22T04:42:53.547Z,90.90
2019-03-22T04:45:23.359Z,92.45
2019-03-22T04:47:57.907Z,97.57
2019-03-22T04:50:28.343Z,115.10
2019-03-22T04:52:58.839Z,102.60
2019-03-22T04:55:29.085Z,67.65
2019-03-22T04:57:59.929Z,67.50
2019-03-22T05:00:29.601Z,87.08
2019-03-22T05:02:58.949Z,119.62
2019-03-22T05:05:27.883Z,91.10
2019-03-22T05:07:57.217Z,75.08
2019-03-22T05:10:27.010Z,75.03
2019-03-22T05:12:59.370Z,77.53
2019-03-22T05:15:31.473Z,77.35
2019-03-22T05:18:02.399Z,87.65
2019-03-22T05:20:33.895Z,89.32
2019-03-22T05:23:04.821Z,86.32
2019-03-22T05:25:35.513Z,110.88
2019-03-22T05:28:06.656Z,89.28
2019-03-22T05:30:50.844Z,75.25
2019-03-22T05:33:19.746Z,71.22
2019-03-22T05:36:07.948Z,66.45
2019-03-22T05:38:36.862Z,89.28
2019-03-22T05:41:05.720Z,79.65
2019-03-22T05:43:34.654Z,95.97
2019-03-22T05:46:03.542Z,70.87
2019-03-22T05:48:32.461Z,73.28
2019-03-22T05:51:01.386Z,74.55
2019-03-22T05:53:30.284Z,84.28
2019-03-22T05:55:59.126Z,70.37
2019-03-22T05:58:28.001Z,66.12
2019-03-22T06:00:57.013Z,70.95
2019-03-22T06:03:25.938Z,71.17
2019-03-22T06:05:54.802Z,81.22
2019-03-22T06:08:23.653Z,63.23
2019-03-22T06:10:52.622Z,61.23
2019-03-22T06:13:21.687Z,62.33
2019-03-22T06:15:50.673Z,59.50
2019-03-22T06:18:19.568Z,52.00
2019-03-22T06:20:48.459Z,62.98
2019-03-22T06:23:17.357Z,54.50
2019-03-22T06:25:46.240Z,59.25
2019-03-22T06:28:15.054Z,55.35
2019-03-22T06:30:43.920Z,54.10
2019-03-22T06:33:12.792Z,58.75
2019-03-22T06:35:41.737Z,54.70
2019-03-22T06:38:10.809Z,56.92
2019-03-22T06:40:39.740Z,52.65
2019-03-22T06:43:08.567Z,52.48
2019-03-22T06:45:37.428Z,51.45
2019-03-22T06:48:06.373Z,50.78
2019-03-22T06:50:35.257Z,49.50
2019-03-22T06:53:04.197Z,54.45
2019-03-22T06:55:34.413Z,57.03
2019-03-22T06:58:03.313Z,52.83
2019-03-22T07:00:32.178Z,51.92
2019-03-22T07:03:01.090Z,55.45
2019-03-22T07:05:29.945Z,54.67
2019-03-22T07:07:58.849Z,55.88
2019-03-22T07:10:27.709Z,49.53
2019-03-22T07:12:56.745Z,52.45
2019-03-22T07:15:25.643Z,50.73
2019-03-22T07:17:54.481Z,51.35
2019-03-22T07:20:23.377Z,49.30
2019-03-22T07:22:52.254Z,49.70
2019-03-22T07:25:21.321Z,49.90
2019-03-22T07:27:50.283Z,49.40
2019-03-22T07:30:20.437Z,52.05
2019-03-22T07:32:49.313Z,53.35
2019-03-22T07:35:18.220Z,51.13
2019-03-22T07:37:47.097Z,50.25
2019-03-22T07:40:16.125Z,54.42
2019-03-22T07:42:45.010Z,50.10
2019-03-22T07:45:14.153Z,53.65
2019-03-22T07:47:43.089Z,53.38
2019-03-22T07:50:13.123Z,52.70
2019-03-22T07:52:42.053Z,55.30
2019-03-22T07:55:11.202Z,48.40
2019-03-22T07:57:40.054Z,53.42
2019-03-22T08:00:11.951Z,50.52
2019-03-22T08:02:40.818Z,54.55
2019-03-22T08:05:09.850Z,48.17
2019-03-22T08:07:38.957Z,49.70
2019-03-22T08:10:08.894Z,47.62
2019-03-22T08:12:37.851Z,50.73
2019-03-22T08:15:08.516Z,47.75
2019-03-22T08:17:37.439Z,49.47
2019-03-22T08:20:07.878Z,49.85
2019-03-22T08:22:36.828Z,52.17
2019-03-22T08:25:05.873Z,50.67
2019-03-22T08:27:34.734Z,49.95
2019-03-22T08:30:05.238Z,47.97
2019-03-22T08:32:33.804Z,49.70
2019-03-22T08:35:03.206Z,46.90
2019-03-22T08:37:31.991Z,51.17
2019-03-22T08:40:00.583Z,48.57
2019-03-22T08:42:29.221Z,49.03
2019-03-22T08:44:57.920Z,49.37
2019-03-22T08:47:33.789Z,48.90
2019-03-22T08:49:56.483Z,52.80
2019-03-22T08:52:25.112Z,48.53
2019-03-22T08:54:54.890Z,50.70
2019-03-22T08:57:24.922Z,49.37
2019-03-22T08:59:54.266Z,47.70
2019-03-22T09:02:23.136Z,50.23
2019-03-22T09:04:51.889Z,54.87
2019-03-22T09:07:20.446Z,50.73
2019-03-22T09:09:49.092Z,55.57
2019-03-22T09:12:17.802Z,54.00
2019-03-22T09:14:46.489Z,51.57
2019-03-22T09:17:17.370Z,53.77
2019-03-22T09:19:46.138Z,49.27
2019-03-22T09:22:14.731Z,52.30
2019-03-22T09:24:43.384Z,50.23
2019-03-22T09:27:12.172Z,47.67
2019-03-22T09:29:40.978Z,51.50
2019-03-22T09:32:10.076Z,49.17
2019-03-22T09:34:40.193Z,48.13
2019-03-22T09:37:09.159Z,44.73
2019-03-22T09:39:38.003Z,48.77
2019-03-22T09:42:06.592Z,45.27
2019-03-22T09:44:43.267Z,45.57
2019-03-22T09:47:05.532Z,47.43
2019-03-22T09:49:34.298Z,44.47
2019-03-22T09:52:02.942Z,46.97
2019-03-22T09:54:31.783Z,40.10
2019-03-22T09:57:00.598Z,46.37
2019-03-22T09:59:29.438Z,47.40
2019-03-22T10:01:58.104Z,45.87
2019-03-22T10:04:26.826Z,43.53
2019-03-22T10:06:55.563Z,45.47
2019-03-22T10:09:24.269Z,41.20
2019-03-22T10:11:53.754Z,39.37
2019-03-22T10:14:22.399Z,35.77
2019-03-22T10:16:51.244Z,35.00
2019-03-22T10:19:19.837Z,37.00
2019-03-22T10:21:48.603Z,32.53
2019-03-22T10:24:17.183Z,35.00
2019-03-22T10:26:45.815Z,32.53
2019-03-22T10:29:14.893Z,33.00
2019-03-22T10:31:44.207Z,30.00
2019-03-22T10:34:12.834Z,31.03
2019-03-22T10:36:41.387Z,30.23
2019-03-22T10:39:10.188Z,29.47
2019-03-22T10:41:38.822Z,27.70
2019-03-22T10:44:07.688Z,23.80
2019-03-22T10:46:36.498Z,26.80
2019-03-22T10:49:06.043Z,24.00
2019-03-22T10:51:34.602Z,24.87
2019-03-22T10:54:03.216Z,25.43
2019-03-22T10:56:31.804Z,24.77
2019-03-22T10:59:00.744Z,20.20
2019-03-22T11:01:29.399Z,16.20
2019-03-22T11:03:58.173Z,17.43
2019-03-22T11:06:27.022Z,15.63
2019-03-22T11:08:55.726Z,14.53
2019-03-22T11:11:24.393Z,18.63
2019-03-22T11:13:53.106Z,16.27
2019-03-22T11:16:21.817Z,15.83
2019-03-22T11:18:50.712Z,14.80
2019-03-22T11:21:19.293Z,14.00
2019-03-22T11:23:47.908Z,13.30
2019-03-22T11:26:16.475Z,16.60
2019-03-22T11:28:45.118Z,15.87
2019-03-22T11:31:13.704Z,13.87
2019-03-22T11:33:42.243Z,14.80
2019-03-22T11:36:10.905Z,13.80
2019-03-22T11:38:39.512Z,14.67
2019-03-22T11:41:08.173Z,14.10
2019-03-22T11:43:36.866Z,14.73
2019-03-22T11:46:05.589Z,14.10
2019-03-22T11:48:34.498Z,13.07
2019-03-22T11:51:03.385Z,13.50
2019-03-22T11:53:32.054Z,17.07
2019-03-22T11:56:00.715Z,11.50
2019-03-22T11:58:29.339Z,13.07
2019-03-22T12:00:58.003Z,11.03
2019-03-22T12:03:26.591Z,11.07
2019-03-22T12:05:55.342Z,10.33
2019-03-22T12:08:25.500Z,8.27
2019-03-22T12:10:54.238Z,8.73
2019-03-22T12:13:22.846Z,10.83
2019-03-22T12:15:51.583Z,9.23
2019-03-22T12:18:20.396Z,8.23
2019-03-22T12:20:49.018Z,9.30
2019-03-22T12:23:17.607Z,8.73
2019-03-22T12:25:46.281Z,7.77
2019-03-22T12:28:14.883Z,8.03
2019-03-22T12:30:43.493Z,8.40
2019-03-22T12:33:12.065Z,8.33
2019-03-22T12:35:42.521Z,7.17
2019-03-22T12:38:10.942Z,6.83
2019-03-22T12:40:39.547Z,8.20
2019-03-22T12:43:08.248Z,6.87
2019-03-22T12:45:37.460Z,7.45
2019-03-22T12:48:06.743Z,7.58
2019-03-22T12:50:36.062Z,7.25
2019-03-22T12:53:05.313Z,6.83
2019-03-22T12:55:34.469Z,8.60
2019-03-22T12:58:03.677Z,7.97
2019-03-22T13:00:32.349Z,7.63
2019-03-22T13:03:00.966Z,6.27
2019-03-22T13:05:29.916Z,5.97
2019-03-22T13:07:58.723Z,6.77
2019-03-22T13:10:29.333Z,7.62
2019-03-22T13:12:57.972Z,7.80
2019-03-22T13:15:26.500Z,8.45
2019-03-22T13:17:55.091Z,7.80
2019-03-22T13:20:23.801Z,8.83
2019-03-22T13:22:52.350Z,8.28
2019-03-22T13:25:21.263Z,6.22
2019-03-22T13:27:49.904Z,6.00
2019-03-22T13:30:30.421Z,6.45
2019-03-22T13:32:59.746Z,6.85
2019-03-22T13:35:29.055Z,6.65
2019-03-22T13:37:58.190Z,5.62
2019-03-22T13:40:27.370Z,6.60
2019-03-22T13:42:56.503Z,6.40
2019-03-22T13:45:25.595Z,5.30
2019-03-22T13:47:54.747Z,5.20
2019-03-22T13:50:23.687Z,5.63
2019-03-22T13:52:52.840Z,4.95
2019-03-22T13:55:21.453Z,5.00
2019-03-22T13:57:50.338Z,4.10
2019-03-22T14:00:20.254Z,4.35
2019-03-22T14:02:48.790Z,4.10
2019-03-22T14:05:17.363Z,3.98
2019-03-22T14:07:46.246Z,5.77
2019-03-22T14:10:28.898Z,6.47
2019-03-22T14:12:58.710Z,4.75
2019-03-22T14:15:27.312Z,4.35
2019-03-22T14:17:56.266Z,4.85
2019-03-22T14:20:24.818Z,3.77
2019-03-22T14:22:54.027Z,4.30
2019-03-22T14:25:27.712Z,4.60
2019-03-22T14:28:00.798Z,4.17
2019-03-22T14:30:43.655Z,4.20
2019-03-22T14:33:13.823Z,4.20
2019-03-22T14:35:42.783Z,4.20
2019-03-22T14:38:11.444Z,3.85
2019-03-22T14:40:39.980Z,4.15
2019-03-22T14:43:09.175Z,3.83
2019-03-22T14:45:38.100Z,3.87
2019-03-22T14:48:07.314Z,3.80
2019-03-22T14:50:36.166Z,3.70
2019-03-22T14:53:05.052Z,3.63
2019-03-22T14:55:34.779Z,4.47
2019-03-22T14:58:03.456Z,4.05
2019-03-22T15:00:32.045Z,3.77
2019-03-22T15:03:01.013Z,3.87
2019-03-22T15:05:29.587Z,3.87
2019-03-22T15:07:59.235Z,4.12
2019-03-22T15:10:28.531Z,4.67
2019-03-22T15:12:57.180Z,3.98
2019-03-22T15:15:30.035Z,4.72
2019-03-22T15:18:03.013Z,4.60
2019-03-22T15:20:38.791Z,4.78
2019-03-22T15:23:19.186Z,10.20
2019-03-22T15:25:58.744Z,5.72
2019-03-22T15:28:45.061Z,5.65
2019-03-22T15:31:27.314Z,8.37
2019-03-22T15:34:10.708Z,9.50
2019-03-22T15:36:57.384Z,6.70
2019-03-22T15:39:44.422Z,5.10
2019-03-22T15:42:13.690Z,4.58
2019-03-22T15:44:42.906Z,4.80
2019-03-22T15:47:12.121Z,4.95
2019-03-22T15:49:40.987Z,8.57
2019-03-22T15:52:10.235Z,5.35
2019-03-22T15:54:39.376Z,4.55
2019-03-22T15:57:08.602Z,5.03
2019-03-22T15:59:37.302Z,7.17
2019-03-22T16:02:07.121Z,6.22
2019-03-22T16:04:35.815Z,5.10
2019-03-22T16:07:04.123Z,5.50
2019-03-22T16:09:33.058Z,10.20
2019-03-22T16:12:02.111Z,5.40
2019-03-22T16:14:30.438Z,6.70
2019-03-22T16:16:58.694Z,6.53
2019-03-22T16:19:27.394Z,6.10
2019-03-22T16:21:56.024Z,6.03
2019-03-22T16:24:24.613Z,7.70
2019-03-22T16:26:52.863Z,8.97
2019-03-22T16:29:21.478Z,7.30
2019-03-22T16:31:50.228Z,6.20
2019-03-22T16:34:19.945Z,6.33
2019-03-22T16:36:48.536Z,6.00
2019-03-22T16:39:17.120Z,6.77
2019-03-22T16:41:47.300Z,6.43
2019-03-22T16:44:16.840Z,6.00
2019-03-22T16:46:45.618Z,8.20
2019-03-22T16:51:58.560Z,9.00
2019-03-22T16:54:27.152Z,6.50
2019-03-22T16:56:55.668Z,6.60
2019-03-22T16:59:24.258Z,6.27
2019-03-22T17:01:52.855Z,7.23
2019-03-22T17:04:21.492Z,8.20
2019-03-22T17:06:49.985Z,9.40
2019-03-22T17:09:18.600Z,8.10
2019-03-22T17:11:47.097Z,8.97
2019-03-22T17:14:15.630Z,7.03
2019-03-22T17:16:44.179Z,12.40
2019-03-22T17:19:12.755Z,8.93
2019-03-22T17:21:41.421Z,8.10
2019-03-22T17:24:10.005Z,8.13
2019-03-22T17:26:38.605Z,9.50
2019-03-22T17:29:07.187Z,6.43
2019-03-22T17:31:35.454Z,8.33
2019-03-22T17:34:14.023Z,7.63
2019-03-22T17:36:36.066Z,8.13
2019-03-22T17:39:06.352Z,7.20
2019-03-22T17:41:36.501Z,7.90
2019-03-22T17:44:05.248Z,7.37
2019-03-22T17:46:34.027Z,9.23
2019-03-22T17:49:02.540Z,9.10
2019-03-22T17:51:31.129Z,6.83
2019-03-22T17:53:59.630Z,8.20
2019-03-22T17:56:28.232Z,6.70
2019-03-22T17:58:56.828Z,6.33
2019-03-22T18:01:25.448Z,9.00
2019-03-22T18:03:54.094Z,9.07
2019-03-22T18:06:22.778Z,7.53
2019-03-22T18:08:51.370Z,8.57
2019-03-22T18:11:19.998Z,10.00
2019-03-22T18:13:48.575Z,8.87
2019-03-22T18:16:17.174Z,10.53
2019-03-22T18:18:45.698Z,9.03
2019-03-22T18:21:14.330Z,11.20
2019-03-22T18:23:42.902Z,8.50
2019-03-22T18:26:11.507Z,8.23
2019-03-22T18:28:40.114Z,12.93
2019-03-22T18:31:08.716Z,9.67
2019-03-22T18:33:37.300Z,7.77
2019-03-22T18:36:05.954Z,8.50
2019-03-22T18:38:34.560Z,8.10
2019-03-22T18:41:03.149Z,11.27
2019-03-22T18:43:31.788Z,7.97
2019-03-22T18:46:00.364Z,7.87
2019-03-22T18:48:28.989Z,8.40
2019-03-22T18:50:57.572Z,10.53
2019-03-22T18:53:26.527Z,8.40
2019-03-22T18:55:55.170Z,9.10
2019-03-22T18:58:23.859Z,9.60
2019-03-22T19:00:52.443Z,9.90
2019-03-22T19:03:21.161Z,11.30
2019-03-22T19:05:49.755Z,11.27
2019-03-22T19:08:18.448Z,11.40
2019-03-22T19:10:47.029Z,14.97
2019-03-22T19:13:15.652Z,17.03
2019-03-22T19:15:45.176Z,17.27
2019-03-22T19:18:13.751Z,16.77
2019-03-22T19:20:42.387Z,14.87
2019-03-22T19:23:10.977Z,14.50
2019-03-22T19:25:39.485Z,15.33
2019-03-22T19:28:08.164Z,16.07
2019-03-22T19:30:36.752Z,17.17
2019-03-22T19:33:05.430Z,13.13
2019-03-22T19:35:34.073Z,14.23
2019-03-22T19:38:02.613Z,12.93
2019-03-22T19:40:31.201Z,13.20
2019-03-22T19:42:59.885Z,13.27
2019-03-22T19:45:28.473Z,17.03
2019-03-22T19:47:57.016Z,15.37
2019-03-22T19:50:25.607Z,13.97
2019-03-22T19:52:54.227Z,17.43
2019-03-22T19:55:22.868Z,19.73
2019-03-22T19:57:51.429Z,12.87
2019-03-22T20:00:21.102Z,13.00
2019-03-22T20:02:49.633Z,14.07
2019-03-22T20:05:29.614Z,14.23
2019-03-22T20:07:58.302Z,13.00
2019-03-22T20:10:37.680Z,14.63
2019-03-22T20:13:06.362Z,16.90
2019-03-22T20:15:34.953Z,17.10
2019-03-22T20:18:03.646Z,15.47
2019-03-22T20:20:32.234Z,17.10
2019-03-22T20:23:00.825Z,15.60
2019-03-22T20:25:30.232Z,15.93
2019-03-22T20:27:58.837Z,15.60
2019-03-22T20:30:27.602Z,14.77
2019-03-22T20:32:56.170Z,15.87
2019-03-22T20:35:24.801Z,16.90
2019-03-22T20:37:53.336Z,16.80
2019-03-22T20:40:22.084Z,16.20
2019-03-22T20:42:50.609Z,15.80
2019-03-22T20:45:24.144Z,18.03
2019-03-22T20:47:49.448Z,18.03
2019-03-22T20:50:18.131Z,20.50
2019-03-22T20:52:46.716Z,18.40
2019-03-22T20:55:15.325Z,18.40
2019-03-22T20:57:43.990Z,18.43
2019-03-22T21:00:18.307Z,34.37
2019-03-22T21:02:47.330Z,19.53
2019-03-22T21:05:26.519Z,19.77
2019-03-22T21:07:46.548Z,25.03
2019-03-22T21:10:15.154Z,19.57
2019-03-22T21:12:43.679Z,20.47
2019-03-22T21:15:23.582Z,21.52
2019-03-22T21:17:43.413Z,25.77
2019-03-22T21:20:12.965Z,18.33
2019-03-22T21:22:41.569Z,19.03
2019-03-22T21:25:11.534Z,18.37
2019-03-22T21:27:40.496Z,17.77
2019-03-22T21:30:30.002Z,18.57
2019-03-22T21:32:58.831Z,18.25
2019-03-22T21:35:36.860Z,18.30
2019-03-22T21:37:58.348Z,18.85
2019-03-22T21:40:27.543Z,18.15
2019-03-22T21:42:56.419Z,22.15
2019-03-22T21:45:25.322Z,19.10
2019-03-22T21:47:54.128Z,18.27
2019-03-22T21:50:23.138Z,19.15
2019-03-22T21:52:51.996Z,16.90
2019-03-22T21:55:20.924Z,16.75
2019-03-22T21:57:49.947Z,17.37
2019-03-22T22:00:22.150Z,15.58
2019-03-22T22:02:50.825Z,17.52
2019-03-22T22:05:19.727Z,15.03
2019-03-22T22:07:48.530Z,16.37
2019-03-22T22:10:17.372Z,17.37
2019-03-22T22:12:46.250Z,17.37
2019-03-22T22:15:15.282Z,17.73
2019-03-22T22:17:44.163Z,16.87
2019-03-22T22:20:13.173Z,16.67
2019-03-22T22:22:42.235Z,17.52
2019-03-22T22:25:11.235Z,18.32
2019-03-22T22:27:40.311Z,15.50
2019-03-22T22:30:10.600Z,17.85
2019-03-22T22:32:39.586Z,22.00
2019-03-22T22:35:08.717Z,19.50
2019-03-22T22:37:37.608Z,16.85
2019-03-22T22:40:11.169Z,17.77
2019-03-22T22:42:40.285Z,18.45
2019-03-22T22:45:10.391Z,17.70
2019-03-22T22:47:39.395Z,16.85
2019-03-22T22:50:10.519Z,17.20
2019-03-22T22:52:39.427Z,18.82
2019-03-22T22:55:08.558Z,18.35
2019-03-22T22:57:37.448Z,19.57
2019-03-22T23:00:09.397Z,17.87
2019-03-22T23:02:38.241Z,20.57
2019-03-22T23:05:06.848Z,18.98
2019-03-22T23:07:35.828Z,20.45
2019-03-22T23:10:06.464Z,16.23
2019-03-22T23:12:35.629Z,18.27
2019-03-22T23:15:08.469Z,16.75
2019-03-22T23:17:37.365Z,17.77
2019-03-22T23:20:07.041Z,15.03
2019-03-22T23:22:35.647Z,14.73
2019-03-22T23:25:06.290Z,15.20
2019-03-22T23:27:35.050Z,14.67
2019-03-22T23:30:06.181Z,16.63
2019-03-22T23:32:34.959Z,16.57
2019-03-22T23:35:04.149Z,16.73
2019-03-22T23:37:33.052Z,17.80
2019-03-22T23:40:01.336Z,18.33
2019-03-22T23:42:29.699Z,18.17
2019-03-22T23:44:57.954Z,17.10
2019-03-22T23:47:26.230Z,18.83
2019-03-22T23:49:54.834Z,17.80
2019-03-22T23:52:23.668Z,18.57
2019-03-22T23:54:52.194Z,17.77
2019-03-22T23:57:20.681Z,17.02
2019-03-22T23:59:49.230Z,17.65
